Time;durP1;ratioP1;P1;durP2;ratioP2;P2;SDS_P1;SDS_P2;PMS_P1;PMS_P2;Temp;Humidity;BMP_temperature;BMP_pressure;BME280_temperature;BME280_humidity;BME280_pressure;Samples;Min_cycle;Max_cycle;Signal;HPM_P1;HPM_P2
2022/09/04 00:01:43;;;;;;;9.30;4.97;;;;;;;12.86;82.99;101014.95;124833;1099;104166;-77
2022/09/04 00:04:25;;;;;;;12.23;5.50;;;;;;;12.82;83.15;101020.06;124807;1098;104179;-77
2022/09/04 00:07:07;;;;;;;12.30;5.20;;;;;;;12.79;83.11;101023.47;124825;1099;104075;-77
2022/09/04 00:09:56;;;;;;;11.90;5.30;;;;;;;12.75;83.14;101026.86;124771;1099;104240;-76
2022/09/04 00:12:34;;;;;;;13.37;5.50;;;;;;;12.71;83.30;101024.95;125743;1099;102199;-76
2022/09/04 00:15:13;;;;;;;10.97;5.43;;;;;;;12.66;83.60;101037.95;124828;1098;102770;-77
2022/09/04 00:17:58;;;;;;;13.20;5.47;;;;;;;12.63;83.71;101044.85;124759;1099;118058;-77
2022/09/04 00:20:46;;;;;;;12.67;5.40;;;;;;;12.59;83.26;101047.37;124812;1099;104226;-76
2022/09/04 00:23:23;;;;;;;11.33;5.27;;;;;;;12.58;83.71;101045.58;124815;1099;104229;-77
2022/09/04 00:26:03;;;;;;;11.87;5.63;;;;;;;12.58;83.33;101055.22;124811;1099;104156;-77
2022/09/04 00:28:38;;;;;;;9.07;5.33;;;;;;;12.58;83.39;101047.32;124859;1099;104164;-77
2022/09/04 00:31:24;;;;;;;13.53;5.80;;;;;;;12.56;83.88;101054.28;124820;1099;104233;-77
2022/09/04 00:34:08;;;;;;;9.87;4.97;;;;;;;12.54;83.86;101058.56;124723;1099;104162;-76
2022/09/04 00:36:47;;;;;;;12.00;5.27;;;;;;;12.51;83.74;101059.38;124776;1099;103574;-77
2022/09/04 00:39:23;;;;;;;9.90;5.23;;;;;;;12.49;83.70;101063.66;124731;1099;102782;-78
2022/09/04 00:42:07;;;;;;;12.53;5.33;;;;;;;12.46;83.74;101057.40;124750;1098;104233;-77
2022/09/04 00:44:50;;;;;;;12.35;5.50;;;;;;;12.44;83.81;101065.23;124828;1099;104249;-76
2022/09/04 00:48:00;;;;;;;11.57;4.87;;;;;;;12.44;84.01;101065.23;124752;1099;102785;-77
2022/09/04 00:50:47;;;;;;;12.87;5.63;;;;;;;12.41;83.73;101070.39;124549;1099;104132;-77
2022/09/04 00:53:51;;;;;;;11.57;5.57;;;;;;;12.39;84.16;101077.34;124874;1099;104357;-77
2022/09/04 00:56:53;;;;;;;11.53;5.27;;;;;;;12.34;84.24;101078.88;124863;1099;102491;-77
2022/09/04 00:59:39;;;;;;;11.00;5.53;;;;;;;12.30;84.38;101084.89;124788;1098;104287;-77
2022/09/04 01:02:22;;;;;;;12.70;5.90;;;;;;;12.27;84.69;101083.02;124726;1099;104246;-77
2022/09/04 01:05:05;;;;;;;12.80;5.77;;;;;;;12.22;84.46;101082.84;124865;1099;102819;-77
2022/09/04 01:07:49;;;;;;;12.17;5.70;;;;;;;12.18;84.93;101077.41;124851;1099;104373;-77
2022/09/04 01:10:43;;;;;;;9.17;5.03;;;;;;;12.16;84.29;101079.98;126102;1098;102202;-77
2022/09/04 01:13:32;;;;;;;11.70;5.67;;;;;;;12.14;84.54;101072.86;125820;1099;104322;-77
2022/09/04 01:16:10;;;;;;;15.83;6.73;;;;;;;12.12;84.60;101071.91;124747;1099;104172;-76
2022/09/04 01:18:52;;;;;;;10.93;5.77;;;;;;;12.10;84.52;101069.22;124950;1099;104242;-76
2022/09/04 01:21:50;;;;;;;9.73;5.40;;;;;;;12.09;84.61;101067.45;124831;1099;104184;-77
2022/09/04 01:24:44;;;;;;;13.63;6.07;;;;;;;12.08;84.78;101077.91;124912;1098;104155;-77
2022/09/04 01:27:25;;;;;;;13.77;5.70;;;;;;;12.05;84.70;101082.19;126006;1098;102784;-76
2022/09/04 01:30:04;;;;;;;16.10;6.17;;;;;;;12.02;84.76;101073.30;124797;1099;104238;-77
2022/09/04 01:32:52;;;;;;;10.57;5.20;;;;;;;12.00;84.63;101078.50;124889;1099;104239;-77
2022/09/04 01:35:55;;;;;;;9.40;5.20;;;;;;;11.97;84.87;101074.86;124817;1099;104176;-77
2022/09/04 01:38:50;;;;;;;14.30;6.03;;;;;;;11.93;84.88;101076.45;124925;1099;104249;-76
2022/09/04 01:41:50;;;;;;;14.50;5.50;;;;;;;11.90;85.08;101080.67;124890;1099;102935;-76
2022/09/04 01:44:44;;;;;;;13.27;5.97;;;;;;;11.86;85.27;101074.41;124748;1099;104205;-76
2022/09/04 01:47:34;;;;;;;13.93;5.80;;;;;;;11.83;85.02;101080.42;124912;1099;104182;-77
2022/09/04 01:50:52;;;;;;;;;;;;;;;11.80;85.28;101082.05;124621;1099;104147;-77
2022/09/04 01:53:32;;;;;;;13.07;5.87;;;;;;;11.79;85.61;101081.13;124863;1097;104262;-77
2022/09/04 01:56:13;;;;;;;11.43;5.70;;;;;;;11.77;85.32;101082.81;124767;1099;102374;-78
2022/09/04 01:58:53;;;;;;;11.10;5.13;;;;;;;11.75;85.26;101076.60;124837;1099;104153;-76
2022/09/04 02:01:37;;;;;;;13.53;5.83;;;;;;;11.75;85.30;101071.34;124805;1099;104198;-77
2022/09/04 02:04:17;;;;;;;11.07;5.37;;;;;;;11.72;85.26;101071.22;124779;1099;104222;-77
2022/09/04 02:07:02;;;;;;;10.63;5.47;;;;;;;11.71;85.32;101072.05;124840;1098;104149;-77
2022/09/04 02:09:45;;;;;;;11.75;5.65;;;;;;;11.69;85.39;101076.36;124802;1099;104258;-77
2022/09/04 02:12:26;;;;;;;12.83;6.00;;;;;;;11.69;85.67;101076.36;124775;1098;104280;-77
2022/09/04 02:15:04;;;;;;;10.87;5.47;;;;;;;11.66;85.65;101076.23;124798;1099;104253;-77
2022/09/04 02:17:44;;;;;;;11.93;6.00;;;;;;;11.65;85.19;101080.56;124775;1099;104188;-77
2022/09/04 02:20:23;;;;;;;13.93;6.00;;;;;;;11.63;85.39;101071.73;124828;1099;104182;-77
2022/09/04 02:23:05;;;;;;;13.77;5.97;;;;;;;11.62;85.80;101074.30;124759;1099;104315;-77
2022/09/04 02:25:45;;;;;;;14.37;5.90;;;;;;;11.60;85.42;101071.61;124755;1099;104389;-77
2022/09/04 02:28:29;;;;;;;10.87;6.10;;;;;;;11.58;85.91;101075.92;124832;1099;104185;-78
2022/09/04 02:31:08;;;;;;;16.27;6.00;;;;;;;11.57;85.77;101075.86;124812;1099;104223;-77
2022/09/04 02:33:49;;;;;;;11.33;5.73;;;;;;;11.55;85.88;101069.65;124836;1099;104166;-77
2022/09/04 02:36:27;;;;;;;13.37;6.10;;;;;;;11.54;85.82;101073.10;124879;1099;102228;-77
2022/09/04 02:39:08;;;;;;;12.97;6.23;;;;;;;11.51;85.74;101069.52;124795;1099;104181;-76
2022/09/04 02:41:49;;;;;;;11.60;5.93;;;;;;;11.48;86.18;101071.11;124872;1099;102235;-76
2022/09/04 02:44:33;;;;;;;15.67;6.13;;;;;;;11.47;86.52;101074.59;124789;1099;104150;-77
2022/09/04 02:47:11;;;;;;;11.83;6.00;;;;;;;11.43;86.68;101068.29;124842;1098;104185;-77
2022/09/04 02:49:54;;;;;;;15.87;6.60;;;;;;;11.40;86.37;101064.65;124833;1098;102905;-77
2022/09/04 02:52:42;;;;;;;14.53;6.57;;;;;;;11.36;86.35;101062.71;124812;1097;104335;-77
2022/09/04 02:55:29;;;;;;;12.53;6.10;;;;;;;11.34;86.74;101067.91;124821;1099;102865;-76
2022/09/04 02:58:14;;;;;;;12.57;6.23;;;;;;;11.33;86.77;101071.39;124877;1099;104173;-77
2022/09/04 03:00:54;;;;;;;12.37;6.43;;;;;;;11.32;87.22;101074.84;124857;1098;104166;-77
2022/09/04 03:03:32;;;;;;;13.07;5.67;;;;;;;11.30;86.75;101076.52;124783;1099;104184;-77
2022/09/04 03:06:10;;;;;;;9.97;5.60;;;;;;;11.28;86.81;101067.65;124867;1099;104157;-76
2022/09/04 03:08:47;;;;;;;12.77;5.73;;;;;;;11.26;86.79;101071.95;125118;1099;103213;-77
2022/09/04 03:11:23;;;;;;;12.90;5.93;;;;;;;11.25;86.91;101068.44;125140;1099;111869;-76
2022/09/04 03:14:01;;;;;;;11.20;5.87;;;;;;;11.25;86.43;101070.14;125244;1099;101848;-77
2022/09/04 03:16:40;;;;;;;13.60;6.40;;;;;;;11.24;87.21;101071.00;125255;1099;104195;-77
2022/09/04 03:19:18;;;;;;;15.83;6.60;;;;;;;11.23;86.63;101074.45;125369;1099;104095;-77
2022/09/04 03:21:54;;;;;;;10.43;5.70;;;;;;;11.22;86.56;101068.31;124880;1098;104283;-76
2022/09/04 03:24:30;;;;;;;13.27;6.60;;;;;;;11.22;86.82;101068.31;124801;1099;104284;-77
2022/09/04 03:27:05;;;;;;;12.07;5.80;;;;;;;11.23;87.17;101069.20;124779;1099;104260;-76
2022/09/04 03:29:46;;;;;;;14.30;6.73;;;;;;;11.22;87.01;101070.02;124841;1099;104263;-76
2022/09/04 03:32:26;;;;;;;11.17;5.90;;;;;;;11.20;87.03;101075.20;124816;1099;102285;-76
2022/09/04 03:35:05;;;;;;;13.40;6.60;;;;;;;11.21;87.42;101069.12;124775;1099;104227;-77
2022/09/04 03:37:59;;;;;;;11.57;5.87;;;;;;;11.21;87.33;101078.75;124826;1099;104271;-77
2022/09/04 03:40:42;;;;;;;11.93;6.00;;;;;;;11.20;87.15;101080.45;124825;1099;104150;-77
2022/09/04 03:43:29;;;;;;;12.80;5.83;;;;;;;11.20;87.20;101076.95;124824;1099;104321;-76
2022/09/04 03:46:13;;;;;;;12.27;6.40;;;;;;;11.20;87.58;101076.95;124722;1099;103286;-77
2022/09/04 03:48:58;;;;;;;11.73;5.92;;;;;;;11.21;87.78;101084.01;124787;1099;103260;-77
2022/09/04 03:51:38;;;;;;;12.40;6.03;;;;;;;11.20;87.29;101076.95;124837;1099;104200;-76
2022/09/04 03:54:24;;;;;;;11.10;6.13;;;;;;;11.20;87.21;101085.71;124815;1099;104262;-76
2022/09/04 03:57:12;;;;;;;12.83;6.27;;;;;;;11.21;88.01;101094.52;124871;1097;104286;-76
2022/09/04 04:00:02;;;;;;;12.43;6.37;;;;;;;11.20;88.05;101092.70;124743;1098;104320;-77
2022/09/04 04:03:02;;;;;;;12.93;6.37;;;;;;;11.18;87.63;101090.02;124738;1099;104169;-77
2022/09/04 04:05:52;;;;;;;14.40;6.30;;;;;;;11.19;87.94;101093.53;124788;1098;102777;-76
2022/09/04 04:08:55;;;;;;;12.27;6.50;;;;;;;11.17;87.93;101101.34;124835;1099;104291;-77
2022/09/04 04:11:52;;;;;;;14.13;6.30;;;;;;;11.14;87.68;101096.88;124813;1099;102177;-77
2022/09/04 04:14:58;;;;;;;12.90;5.90;;;;;;;11.15;87.84;101109.16;124735;1099;104259;-76
2022/09/04 04:17:48;;;;;;;13.80;5.73;;;;;;;11.15;88.01;101109.16;124717;1099;103535;-77
2022/09/04 04:20:29;;;;;;;11.27;5.80;;;;;;;11.18;87.88;101112.77;124811;1099;104184;-76
2022/09/04 04:23:29;;;;;;;13.60;6.43;;;;;;;11.19;88.00;101111.91;124766;1099;104280;-76
2022/09/04 04:26:10;;;;;;;12.53;6.00;;;;;;;11.19;88.20;101128.59;124808;1099;104252;-77
2022/09/04 04:29:07;;;;;;;11.50;5.90;;;;;;;11.21;88.18;101120.78;124840;1099;104163;-76
2022/09/04 04:34:52;;;;;;;12.43;5.70;;;;;;;11.25;88.02;101130.56;124764;1099;102465;-77
2022/09/04 04:37:37;;;;;;;13.57;5.50;;;;;;;11.28;88.10;101126.37;124773;1099;104232;-76
2022/09/04 04:40:15;;;;;;;11.20;5.70;;;;;;;11.31;88.15;101122.95;124875;1099;104264;-78
2022/09/04 04:42:56;;;;;;;10.07;5.43;;;;;;;11.33;88.59;101130.08;124821;1099;104169;-77
2022/09/04 04:45:51;;;;;;;10.90;5.83;;;;;;;11.36;88.50;101131.95;124858;1099;102832;-77
2022/09/04 04:48:58;;;;;;;8.67;5.20;;;;;;;11.40;88.10;101135.59;124904;1099;104226;-76
2022/09/04 04:51:50;;;;;;;12.77;5.53;;;;;;;11.44;88.61;101137.53;124856;1099;104207;-77
2022/09/04 04:54:38;;;;;;;10.77;5.30;;;;;;;11.48;88.55;101144.69;124860;1099;104235;-77
2022/09/04 04:57:22;;;;;;;14.40;5.87;;;;;;;11.54;88.48;101151.95;124806;1099;103118;-77
2022/09/04 05:00:05;;;;;;;10.55;5.20;;;;;;;11.57;88.26;101158.22;124753;1099;104614;-77
2022/09/04 05:02:51;;;;;;;9.67;5.37;;;;;;;11.62;88.38;101155.79;124819;1099;101822;-77
2022/09/04 05:05:42;;;;;;;11.23;5.67;;;;;;;11.66;88.27;101145.47;124837;1099;103043;-77
2022/09/04 05:08:23;;;;;;;10.87;5.57;;;;;;;11.71;88.46;101147.40;124832;1099;102280;-77
2022/09/04 05:11:00;;;;;;;12.40;5.53;;;;;;;11.79;88.43;101148.60;124779;1099;102956;-77
2022/09/04 05:13:40;;;;;;;13.20;5.63;;;;;;;11.86;88.32;101148.03;124819;1099;104180;-77
2022/09/04 05:16:21;;;;;;;13.73;5.83;;;;;;;11.94;88.18;101151.01;124845;1098;104226;-76
2022/09/04 05:18:57;;;;;;;12.37;5.67;;;;;;;12.00;88.34;101153.89;124810;1099;102113;-77
2022/09/04 05:21:36;;;;;;;12.80;5.30;;;;;;;12.08;88.18;101155.08;124789;1099;104235;-77
2022/09/04 05:24:20;;;;;;;13.37;5.80;;;;;;;12.15;88.29;101156.22;124781;1099;104146;-77
2022/09/04 05:26:56;;;;;;;13.65;5.55;;;;;;;12.21;88.40;101162.61;124731;1099;104407;-77
2022/09/04 05:29:36;;;;;;;12.50;6.10;;;;;;;12.27;88.17;101164.59;124750;1099;103876;-76
2022/09/04 05:32:18;;;;;;;11.63;5.63;;;;;;;12.37;88.04;101163.21;124765;1099;104159;-77
2022/09/04 05:35:07;;;;;;;10.73;5.80;;;;;;;12.46;87.83;101166.20;124788;1099;118677;-77
2022/09/04 05:37:46;;;;;;;13.87;5.87;;;;;;;12.55;88.03;101163.03;124768;1099;104217;-77
2022/09/04 05:40:28;;;;;;;8.60;5.37;;;;;;;12.65;88.11;101164.27;124805;1098;104169;-77
2022/09/04 05:43:14;;;;;;;10.72;5.20;;;;;;;12.75;87.75;101161.16;124793;1098;102561;-77
2022/09/04 05:46:04;;;;;;;10.53;4.95;;;;;;;12.84;88.12;101164.14;124834;1098;104249;-78
2022/09/04 05:48:44;;;;;;;12.20;5.23;;;;;;;12.94;87.90;101155.72;124847;1099;102278;-77
2022/09/04 05:51:48;;;;;;;14.03;5.50;;;;;;;13.05;87.53;101163.13;124879;1099;102493;-77
2022/09/04 05:54:42;;;;;;;12.35;5.22;;;;;;;13.17;87.72;101170.59;124480;1099;104214;-77
2022/09/04 05:57:25;;;;;;;11.43;5.53;;;;;;;13.28;88.01;101161.31;124732;1099;104223;-76
2022/09/04 06:00:07;;;;;;;10.75;5.33;;;;;;;13.40;87.08;101174.04;124767;1099;104160;-77
2022/09/04 06:03:23;;;;;;;11.67;5.20;;;;;;;13.48;87.56;101173.47;124743;1099;104214;-77
2022/09/04 06:06:13;;;;;;;11.63;5.27;;;;;;;13.59;87.77;101168.57;124800;1099;108175;-77
2022/09/04 06:09:10;;;;;;;10.27;4.53;;;;;;;13.63;87.49;101173.12;124849;1099;101914;-77
2022/09/04 06:11:59;;;;;;;10.90;5.00;;;;;;;13.68;86.56;101185.54;124813;1099;104297;-77
2022/09/04 06:14:55;;;;;;;11.73;5.07;;;;;;;13.74;86.70;101185.75;124790;1099;102765;-77
2022/09/04 06:17:50;;;;;;;10.30;4.80;;;;;;;13.78;87.03;101191.18;124745;1098;102790;-77
2022/09/04 06:20:39;;;;;;;7.63;4.70;;;;;;;13.84;86.43;101188.75;124822;1099;104277;-77
2022/09/04 06:23:41;;;;;;;12.10;5.07;;;;;;;13.96;87.11;101188.27;124799;1098;104340;-77
2022/09/04 06:26:33;;;;;;;11.00;5.57;;;;;;;14.12;86.68;101186.13;124787;1099;104277;-77
2022/09/04 06:29:33;;;;;;;10.70;4.70;;;;;;;14.16;85.74;101196.84;124813;1099;104297;-78
2022/09/04 06:32:28;;;;;;;11.40;4.60;;;;;;;14.18;86.47;101189.86;124801;1099;104244;-77
2022/09/04 06:35:14;;;;;;;9.10;4.63;;;;;;;14.26;85.62;101195.38;124721;1099;104241;-78
2022/09/04 06:37:54;;;;;;;8.87;4.47;;;;;;;14.35;86.18;101198.31;124803;1099;104262;-78
2022/09/04 06:40:41;;;;;;;8.17;4.93;;;;;;;14.30;84.90;101191.08;124806;1099;102909;-77
2022/09/04 06:43:26;;;;;;;13.10;5.33;;;;;;;14.37;85.62;101199.25;124808;1099;104169;-78
2022/09/04 06:46:10;;;;;;;9.97;5.00;;;;;;;14.44;85.01;101199.44;124802;1099;104162;-79
2022/09/04 06:48:53;;;;;;;12.67;4.93;;;;;;;14.51;84.39;101204.08;124871;1098;104217;-78
2022/09/04 06:51:41;;;;;;;9.53;4.90;;;;;;;14.64;85.66;101198.33;124838;1099;104181;-77
2022/09/04 06:54:26;;;;;;;8.87;4.63;;;;;;;14.70;85.19;101200.27;124854;1099;102594;-78
2022/09/04 06:57:09;;;;;;;10.13;4.70;;;;;;;14.79;84.82;101200.55;124760;1099;103571;-77
2022/09/04 07:00:02;;;;;;;10.53;5.13;;;;;;;14.92;84.21;101207.08;124759;1099;104301;-78
2022/09/04 07:02:53;;;;;;;11.50;4.90;;;;;;;15.10;84.79;101207.61;124763;1099;104256;-78
2022/09/04 07:05:32;;;;;;;9.10;4.83;;;;;;;15.33;83.96;101202.05;124818;1099;102822;-78
2022/09/04 07:08:15;;;;;;;10.53;5.20;;;;;;;15.49;84.70;101199.83;124787;1099;104191;-78
2022/09/04 07:10:52;;;;;;;12.90;5.33;;;;;;;15.68;84.19;101199.47;124823;1099;104226;-78
2022/09/04 07:13:46;;;;;;;6.83;4.17;;;;;;;15.79;84.19;101202.44;124779;1098;104714;-78
2022/09/04 07:16:34;;;;;;;10.00;5.08;;;;;;;15.86;83.46;101206.12;124786;1099;104214;-78
2022/09/04 07:19:45;;;;;;;10.83;5.23;;;;;;;15.91;83.91;101204.47;124820;1099;104185;-77
2022/09/04 07:22:47;;;;;;;12.57;5.03;;;;;;;15.95;83.60;101209.88;124258;1102;104458;-78
2022/09/04 07:25:25;;;;;;;10.97;5.10;;;;;;;16.02;83.32;101207.39;124305;1102;103778;-78
2022/09/04 07:28:07;;;;;;;12.33;4.80;;;;;;;16.14;82.47;101208.61;124665;1099;118917;-78
2022/09/04 07:30:49;;;;;;;10.00;4.50;;;;;;;16.25;82.17;101205.30;124814;1099;104156;-77
2022/09/04 07:33:26;;;;;;;11.90;4.67;;;;;;;16.43;82.76;101213.68;124816;1099;104232;-78
2022/09/04 07:36:02;;;;;;;9.53;4.90;;;;;;;16.57;81.43;101214.00;124789;1099;104264;-78
2022/09/04 07:38:44;;;;;;;9.90;4.37;;;;;;;16.77;81.12;101206.49;124802;1099;104160;-78
2022/09/04 07:41:24;;;;;;;9.67;4.17;;;;;;;16.87;75.36;101208.48;124786;1099;104264;-77
2022/09/04 07:44:01;;;;;;;9.27;4.33;;;;;;;16.98;77.10;101210.48;124730;1099;104307;-77
2022/09/04 07:46:43;;;;;;;8.50;4.20;;;;;;;17.14;77.79;101206.37;124717;1099;104210;-77
2022/09/04 07:49:23;;;;;;;9.23;3.90;;;;;;;17.25;77.25;101216.35;124773;1099;104137;-78
2022/09/04 07:51:59;;;;;;;10.13;4.00;;;;;;;17.38;78.23;101217.47;124816;1099;104217;-78
2022/09/04 07:54:53;;;;;;;7.73;4.17;;;;;;;17.46;75.13;101214.97;124812;1099;104325;-78
2022/09/04 07:57:40;;;;;;;7.97;4.07;;;;;;;17.45;75.45;101213.17;124789;1099;104261;-79
2022/09/04 08:00:16;;;;;;;7.93;3.70;;;;;;;17.54;72.06;101209.80;124870;1099;104512;-77
2022/09/04 08:03:10;;;;;;;11.30;3.97;;;;;;;17.58;73.23;101217.85;124715;1098;104223;-78
2022/09/04 08:05:49;;;;;;;7.70;3.90;;;;;;;17.74;73.67;101218.13;124803;1099;104229;-78
2022/09/04 08:08:50;;;;;;;7.73;3.73;;;;;;;17.85;70.93;101210.36;124774;1099;102429;-78
2022/09/04 08:11:39;;;;;;;8.03;3.90;;;;;;;17.97;70.30;101223.87;124771;1099;104041;-78
2022/09/04 08:14:23;;;;;;;8.33;3.70;;;;;;;18.04;70.49;101216.90;124840;1097;102755;-78
2022/09/04 08:17:24;;;;;;;6.57;3.80;;;;;;;18.11;70.17;101218.80;124813;1099;104318;-78
2022/09/04 08:20:12;;;;;;;7.63;4.27;;;;;;;18.14;68.00;101214.42;124771;1098;104199;-78
2022/09/04 08:23:04;;;;;;;8.87;3.83;;;;;;;18.18;69.33;101214.47;124766;1099;104229;-78
2022/09/04 08:25:54;;;;;;;9.55;4.50;;;;;;;18.20;68.74;101216.30;124812;1099;104190;-78
2022/09/04 08:28:43;;;;;;;9.90;3.77;;;;;;;18.25;68.45;101213.70;124866;1099;102752;-78
2022/09/04 08:31:25;;;;;;;9.43;3.80;;;;;;;18.28;67.98;101214.64;124762;1098;104233;-78
2022/09/04 08:34:34;;;;;;;7.43;3.70;;;;;;;18.31;66.07;101212.03;124848;1099;101806;-77
2022/09/04 08:37:20;;;;;;;9.80;3.70;;;;;;;18.35;66.49;101212.08;124650;1099;104249;-78
2022/09/04 08:40:02;;;;;;;6.87;3.47;;;;;;;18.39;65.51;101219.23;124856;1099;104390;-78
2022/09/04 08:43:04;;;;;;;8.77;4.00;;;;;;;18.41;66.12;101214.83;124875;1099;104162;-78
2022/09/04 08:46:10;;;;;;;6.43;3.73;;;;;;;18.49;66.75;101216.70;124648;1099;104447;-78
2022/09/04 08:49:19;;;;;;;8.33;3.50;;;;;;;18.61;66.18;101223.97;124839;1099;102927;-78
2022/09/04 08:52:26;;;;;;;7.17;3.60;;;;;;;18.77;64.89;101219.75;124801;1099;102942;-77
2022/09/04 08:55:32;;;;;;;6.83;3.23;;;;;;;18.85;64.71;101212.83;124765;1099;104156;-78
2022/09/04 08:58:38;;;;;;;6.03;3.10;;;;;;;18.93;63.10;101212.02;124453;1100;104235;-78
2022/09/04 09:01:52;;;;;;;8.70;3.50;;;;;;;19.07;63.40;101218.39;124818;1099;104264;-79
2022/09/04 09:05:12;;;;;;;8.83;3.67;;;;;;;19.06;61.26;101215.71;124818;1099;102815;-77
2022/09/04 09:08:13;;;;;;;9.93;3.60;;;;;;;19.15;60.99;101211.42;124245;1102;104230;-78
2022/09/04 09:11:22;;;;;;;9.30;3.70;;;;;;;19.20;60.65;101214.13;124243;1102;104438;-78
2022/09/04 09:14:30;;;;;;;9.33;3.30;;;;;;;19.29;61.66;101214.24;124366;1099;102283;-78
2022/09/04 09:17:12;;;;;;;6.23;3.40;;;;;;;19.40;59.40;101209.04;124802;1099;104682;-78
2022/09/04 09:19:59;;;;;;;7.93;3.40;;;;;;;19.43;60.66;101205.50;124827;1099;104233;-77
2022/09/04 09:23:08;;;;;;;7.00;3.60;;;;;;;19.46;60.40;101198.45;124853;1099;104166;-77
2022/09/04 09:25:49;;;;;;;6.27;3.20;;;;;;;19.54;60.45;101193.18;125200;1099;104213;-78
2022/09/04 09:29:05;;;;;;;7.33;3.97;;;;;;;19.44;58.92;101196.65;124840;1098;104166;-79
2022/09/04 09:32:08;;;;;;;7.03;3.27;;;;;;;19.26;59.44;101207.97;124790;1099;104195;-78
2022/09/04 09:35:37;;;;;;;11.27;3.73;;;;;;;19.12;59.64;101200.74;124863;1099;104229;-78
2022/09/04 09:38:54;;;;;;;5.50;3.30;;;;;;;19.26;60.12;101202.64;124839;1097;104153;-78
2022/09/04 09:42:05;;;;;;;5.50;3.30;;;;;;;19.27;58.24;101194.69;124772;1099;104169;-78
2022/09/04 09:45:10;;;;;;;6.93;3.40;;;;;;;19.37;57.79;101198.36;124772;1099;104194;-78
2022/09/04 09:48:10;;;;;;;8.33;3.53;;;;;;;19.34;58.60;101196.55;124787;1099;104213;-78
2022/09/04 09:51:15;;;;;;;5.17;3.53;;;;;;;19.22;58.63;101193.75;124765;1099;102778;-78
2022/09/04 09:54:13;;;;;;;5.13;3.40;;;;;;;19.17;56.83;101195.48;124490;1099;104303;-78
2022/09/04 09:57:13;;;;;;;7.23;3.33;;;;;;;19.21;57.27;101199.94;124763;1099;104223;-79
2022/09/04 10:00:16;;;;;;;6.40;3.27;;;;;;;19.38;57.68;101187.73;124825;1099;104156;-78
2022/09/04 10:03:16;;;;;;;8.90;3.00;;;;;;;19.49;56.37;101187.81;124761;1099;104723;-78
2022/09/04 10:06:17;;;;;;;5.17;3.20;;;;;;;19.67;55.16;101184.45;124856;1097;102155;-77
2022/09/04 10:09:27;;;;;;;6.30;3.27;;;;;;;19.82;56.39;101175.75;124532;1099;102117;-78
2022/09/04 10:12:29;;;;;;;5.70;3.10;;;;;;;19.92;56.09;101182.03;124797;1099;107078;-78
2022/09/04 10:15:21;;;;;;;4.77;3.17;;;;;;;20.07;55.20;101176.83;124837;1099;102765;-78
2022/09/04 10:18:39;;;;;;;7.23;2.93;;;;;;;20.18;55.81;101171.58;124777;1099;104252;-78
2022/09/04 10:21:34;;;;;;;8.07;3.20;;;;;;;20.23;54.67;101175.16;124855;1099;104246;-78
2022/09/04 10:24:33;;;;;;;5.70;2.90;;;;;;;20.28;53.00;101173.41;124752;1097;104175;-77
2022/09/04 10:27:26;;;;;;;4.33;2.77;;;;;;;20.29;53.69;101175.20;125548;1099;104169;-78
2022/09/04 10:30:07;;;;;;;4.47;2.90;;;;;;;20.29;52.66;101179.64;124856;1098;101815;-78
2022/09/04 10:33:25;;;;;;;7.55;3.20;;;;;;;20.33;51.06;101185.87;124840;1099;102739;-78
2022/09/04 10:36:20;;;;;;;6.07;3.27;;;;;;;20.38;52.36;101179.70;124195;1102;104159;-78
2022/09/04 10:42:24;;;;;;;4.03;3.00;;;;;;;20.39;50.49;101178.80;124534;1098;104489;-78
2022/09/04 10:45:16;;;;;;;5.63;2.80;;;;;;;20.52;51.11;101177.13;124818;1099;104188;-78
2022/09/04 10:48:11;;;;;;;4.20;2.63;;;;;;;20.73;50.99;101168.36;124835;1099;104239;-78
2022/09/04 10:51:09;;;;;;;5.63;2.93;;;;;;;20.90;51.52;101168.42;124702;1099;104194;-78
2022/09/04 10:54:13;;;;;;;6.50;3.17;;;;;;;21.07;51.19;101167.61;124822;1099;102816;-78
2022/09/04 10:57:00;;;;;;;6.40;2.80;;;;;;;20.91;50.63;101169.30;124836;1099;104229;-78
2022/09/04 11:00:01;;;;;;;4.63;2.73;;;;;;;20.75;51.16;101163.91;124837;1099;104174;-78
2022/09/04 11:03:02;;;;;;;4.43;2.70;;;;;;;20.60;50.87;101174.47;124808;1099;103035;-78
2022/09/04 11:06:24;;;;;;;3.85;2.75;;;;;;;20.49;50.92;101171.77;124589;1099;104235;-77
2022/09/04 11:09:27;;;;;;;5.40;2.80;;;;;;;20.52;50.03;101170.88;124193;1099;102981;-77
2022/09/04 11:12:34;;;;;;;3.60;2.50;;;;;;;20.58;49.06;101171.79;124793;1099;102784;-77
2022/09/04 11:15:41;;;;;;;2.87;2.37;;;;;;;20.67;49.88;101160.33;124843;1099;104261;-77
2022/09/04 11:18:50;;;;;;;5.60;2.73;;;;;;;20.79;48.72;101149.71;124619;1099;102823;-77
2022/09/04 11:22:07;;;;;;;3.83;2.50;;;;;;;21.00;49.20;101156.00;124774;1099;102759;-77
2022/09/04 11:25:17;;;;;;;4.57;2.80;;;;;;;21.14;47.92;101146.25;124790;1099;104159;-77
2022/09/04 11:28:12;;;;;;;5.00;2.50;;;;;;;21.16;46.98;101143.59;124854;1098;104188;-78
2022/09/04 11:31:00;;;;;;;5.80;2.53;;;;;;;20.98;47.22;101150.66;124747;1099;104644;-77
2022/09/04 11:34:18;;;;;;;3.97;2.70;;;;;;;20.79;47.28;101146.16;124787;1099;112205;-77
2022/09/04 11:37:32;;;;;;;4.13;2.50;;;;;;;20.77;47.45;101139.91;124818;1098;104214;-77
2022/09/04 11:40:34;;;;;;;7.07;2.53;;;;;;;20.86;47.19;101136.40;124645;1099;104284;-77
2022/09/04 11:43:26;;;;;;;4.33;2.30;;;;;;;20.90;46.78;101136.42;124740;1097;102268;-77
2022/09/04 11:46:30;;;;;;;3.00;2.33;;;;;;;20.77;44.71;101146.16;124771;1099;104666;-77
2022/09/04 11:49:23;;;;;;;5.53;2.67;;;;;;;20.79;44.67;101144.38;124689;1099;104187;-77
2022/09/04 11:52:09;;;;;;;4.27;2.57;;;;;;;20.82;46.06;101143.52;124771;1099;102877;-77
2022/09/04 11:55:08;;;;;;;6.57;2.57;;;;;;;20.84;45.05;101141.73;124793;1099;102740;-77
2022/09/04 11:57:53;;;;;;;3.30;2.35;;;;;;;20.99;45.96;101136.45;124805;1097;104159;-77
2022/09/04 12:00:24;;;;;;;4.37;2.40;;;;;;;21.16;45.54;101135.58;124791;1099;104213;-77
2022/09/04 12:03:38;;;;;;;4.60;2.50;;;;;;;21.28;45.30;101137.39;124814;1099;102855;-77
2022/09/04 12:06:36;;;;;;;4.87;2.43;;;;;;;21.27;45.87;101130.27;124705;1099;104175;-76
2022/09/04 12:09:38;;;;;;;2.20;2.00;;;;;;;21.30;45.48;101127.59;124707;1098;104203;-77
2022/09/04 12:12:26;;;;;;;12.63;2.37;;;;;;;21.28;45.63;101132.05;124771;1099;104153;-77
2022/09/04 12:15:31;;;;;;;3.17;2.13;;;;;;;21.27;43.24;101136.52;124743;1099;104051;-77
2022/09/04 12:18:19;;;;;;;;;;;;;;;21.23;42.77;101139.17;124821;1099;104255;-77
2022/09/04 12:21:13;;;;;;;4.33;2.40;;;;;;;21.03;43.56;101136.45;124780;1099;104171;-77
2022/09/04 12:24:19;;;;;;;4.13;2.70;;;;;;;20.93;43.58;101135.55;124782;1099;104194;-77
2022/09/04 12:27:14;;;;;;;5.73;2.37;;;;;;;20.90;44.54;101135.54;124452;1099;104179;-77
2022/09/04 12:30:04;;;;;;;2.57;2.30;;;;;;;20.95;44.56;101131.09;124849;1099;102785;-77
2022/09/04 12:33:13;;;;;;;2.67;2.20;;;;;;;21.04;43.90;101133.80;124801;1099;104606;-77
2022/09/04 12:36:21;;;;;;;3.17;2.43;;;;;;;21.07;43.06;101132.92;124790;1099;102817;-78
2022/09/04 12:39:08;;;;;;;2.53;2.00;;;;;;;21.08;43.87;101138.23;124595;1097;104130;-77
2022/09/04 12:41:50;;;;;;;3.50;2.20;;;;;;;21.12;43.64;101126.69;124824;1099;104265;-77
2022/09/04 12:44:30;;;;;;;2.50;2.00;;;;;;;21.12;43.96;101133.81;124785;1099;104198;-77
2022/09/04 12:47:14;;;;;;;2.57;2.00;;;;;;;21.11;43.37;101140.02;124827;1099;104185;-77
2022/09/04 12:50:17;;;;;;;3.92;2.40;;;;;;;21.06;42.90;101125.80;124759;1099;102775;-77
2022/09/04 12:53:05;;;;;;;4.22;2.52;;;;;;;21.00;43.25;101131.98;124675;1099;102848;-77
2022/09/04 12:55:45;;;;;;;2.97;2.50;;;;;;;20.96;42.85;101135.56;124658;1099;108140;-77